Time;durP1;ratioP1;P1;durP2;ratioP2;P2;SDS_P1;SDS_P2;PMS_P1;PMS_P2;Temp;Humidity;BMP_temperature;BMP_pressure;BME280_temperature;BME280_humidity;BME280_pressure;Samples;Min_cycle;Max_cycle;Signal;HPM_P1;HPM_P2
2022/05/19 00:00:00;;;;;;;0.5;0.5;;;;;;;21.7;100.0;101490;;;;
2022/05/19 00:01:01;;;;;;;0.5;0.5;;;;;;;21.7;100.0;101480;;;;
2022/05/19 00:02:01;;;;;;;0.2;0.2;;;;;;;21.7;100.0;101480;;;;
2022/05/19 00:03:00;;;;;;;0.2;0.2;;;;;;;21.8;100.0;101480;;;;
2022/05/19 00:04:00;;;;;;;0.2;0.2;;;;;;;21.8;100.0;101480;;;;
2022/05/19 00:05:00;;;;;;;0.2;0.2;;;;;;;21.7;100.0;101480;;;;
2022/05/19 00:06:00;;;;;;;0.2;0.2;;;;;;;21.7;100.0;101480;;;;
2022/05/19 00:07:00;;;;;;;0.2;0.2;;;;;;;21.7;100.0;101480;;;;
2022/05/19 00:08:00;;;;;;;0.2;0.2;;;;;;;21.7;100.0;101480;;;;
2022/05/19 00:09:00;;;;;;;0.2;0.2;;;;;;;21.8;100.0;101480;;;;
2022/05/19 00:10:00;;;;;;;0.2;0.2;;;;;;;21.8;100.0;101480;;;;
2022/05/19 00:11:02;;;;;;;0.2;0.2;;;;;;;21.7;100.0;101480;;;;
2022/05/19 00:12:03;;;;;;;0.2;0.2;;;;;;;21.7;100.0;101480;;;;
2022/05/19 00:13:00;;;;;;;0.2;0.2;;;;;;;21.6;100.0;101470;;;;
2022/05/19 00:14:00;;;;;;;0.2;0.2;;;;;;;21.6;100.0;101470;;;;
2022/05/19 00:15:00;;;;;;;0.2;0.2;;;;;;;21.7;100.0;101470;;;;
2022/05/19 00:16:00;;;;;;;0.2;0.2;;;;;;;21.7;100.0;101470;;;;
2022/05/19 00:17:00;;;;;;;0.2;0.2;;;;;;;21.8;100.0;101470;;;;
2022/05/19 00:18:00;;;;;;;0.2;0.2;;;;;;;21.8;100.0;101470;;;;
2022/05/19 00:19:00;;;;;;;0.2;0.2;;;;;;;21.7;100.0;101460;;;;
2022/05/19 00:20:00;;;;;;;0.2;0.2;;;;;;;21.7;100.0;101460;;;;
2022/05/19 00:21:00;;;;;;;0.2;0.2;;;;;;;21.8;100.0;101460;;;;
2022/05/19 00:22:00;;;;;;;0.8;0.8;;;;;;;21.8;100.0;101460;;;;
2022/05/19 00:23:00;;;;;;;0.8;0.8;;;;;;;21.8;100.0;101460;;;;
2022/05/19 00:24:00;;;;;;;0.8;0.8;;;;;;;21.8;100.0;101460;;;;
2022/05/19 00:25:00;;;;;;;0.8;0.8;;;;;;;21.9;100.0;101460;;;;
2022/05/19 00:26:00;;;;;;;0.8;0.8;;;;;;;21.9;100.0;101460;;;;
2022/05/19 00:27:00;;;;;;;0.8;0.8;;;;;;;21.8;100.0;101460;;;;
2022/05/19 00:28:00;;;;;;;0.8;0.8;;;;;;;21.8;100.0;101460;;;;
2022/05/19 00:29:00;;;;;;;0.8;0.8;;;;;;;21.7;100.0;101460;;;;
2022/05/19 00:30:00;;;;;;;0.8;0.8;;;;;;;21.7;100.0;101460;;;;
2022/05/19 00:31:00;;;;;;;0.8;0.8;;;;;;;21.5;100.0;101450;;;;
2022/05/19 00:32:00;;;;;;;0.8;0.8;;;;;;;21.5;100.0;101450;;;;
2022/05/19 00:33:00;;;;;;;0.8;0.8;;;;;;;21.4;100.0;101450;;;;
2022/05/19 00:34:01;;;;;;;0.8;0.8;;;;;;;21.4;100.0;101450;;;;
2022/05/19 00:35:00;;;;;;;0.8;0.8;;;;;;;21.3;100.0;101440;;;;
2022/05/19 00:36:08;;;;;;;0.8;0.8;;;;;;;21.3;100.0;101440;;;;
2022/05/19 00:37:01;;;;;;;0.8;0.8;;;;;;;21.5;100.0;101450;;;;
2022/05/19 00:38:00;;;;;;;0.8;0.8;;;;;;;21.5;100.0;101450;;;;
2022/05/19 00:39:00;;;;;;;0.8;0.8;;;;;;;21.5;100.0;101440;;;;
2022/05/19 00:40:00;;;;;;;0.8;0.8;;;;;;;21.5;100.0;101440;;;;
2022/05/19 00:41:00;;;;;;;0.8;0.8;;;;;;;21.5;100.0;101440;;;;
2022/05/19 00:43:00;;;;;;;1.1;1.1;;;;;;;21.5;100.0;101440;;;;
2022/05/19 00:44:02;;;;;;;1.1;1.1;;;;;;;21.5;100.0;101440;;;;
2022/05/19 00:45:00;;;;;;;1.1;1.1;;;;;;;21.4;100.0;101430;;;;
2022/05/19 00:46:10;;;;;;;1.1;1.1;;;;;;;21.4;100.0;101430;;;;
2022/05/19 00:47:00;;;;;;;1.1;1.1;;;;;;;21.4;100.0;101430;;;;
2022/05/19 00:48:05;;;;;;;1.1;1.1;;;;;;;21.4;100.0;101430;;;;
2022/05/19 00:49:06;;;;;;;1.1;1.1;;;;;;;21.3;100.0;101430;;;;
2022/05/19 00:50:02;;;;;;;1.1;1.1;;;;;;;21.3;100.0;101430;;;;
2022/05/19 00:51:03;;;;;;;1.1;1.1;;;;;;;21.3;100.0;101420;;;;
2022/05/19 00:52:02;;;;;;;1.1;1.1;;;;;;;21.3;100.0;101420;;;;
2022/05/19 00:53:04;;;;;;;1.1;1.1;;;;;;;21.2;100.0;101420;;;;
2022/05/19 00:54:00;;;;;;;1.1;1.1;;;;;;;21.2;100.0;101420;;;;
2022/05/19 00:55:04;;;;;;;1.1;1.1;;;;;;;21.3;100.0;101420;;;;
2022/05/19 00:56:03;;;;;;;1.1;1.1;;;;;;;21.3;100.0;101420;;;;
2022/05/19 00:57:04;;;;;;;1.1;1.1;;;;;;;21.1;100.0;101420;;;;
2022/05/19 00:58:05;;;;;;;1.1;1.1;;;;;;;21.1;100.0;101420;;;;
2022/05/19 00:59:04;;;;;;;1.1;1.1;;;;;;;21.1;100.0;101420;;;;
2022/05/19 01:00:03;;;;;;;1.1;1.1;;;;;;;21.1;100.0;101420;;;;
2022/05/19 01:01:00;;;;;;;1.1;1.1;;;;;;;21.1;100.0;101420;;;;
2022/05/19 01:02:01;;;;;;;0.3;0.3;;;;;;;21.1;100.0;101420;;;;
2022/05/19 01:03:01;;;;;;;0.3;0.3;;;;;;;21.1;100.0;101420;;;;
2022/05/19 01:04:04;;;;;;;0.3;0.3;;;;;;;21.1;100.0;101420;;;;
2022/05/19 01:05:03;;;;;;;0.3;0.3;;;;;;;21.1;100.0;101410;;;;
2022/05/19 01:06:03;;;;;;;0.3;0.3;;;;;;;21.1;100.0;101410;;;;
2022/05/19 01:07:04;;;;;;;0.3;0.3;;;;;;;21.1;100.0;101420;;;;
2022/05/19 01:08:07;;;;;;;0.3;0.3;;;;;;;21.1;100.0;101420;;;;
2022/05/19 01:09:03;;;;;;;0.3;0.3;;;;;;;21.2;100.0;101420;;;;
2022/05/19 01:10:01;;;;;;;0.3;0.3;;;;;;;21.2;100.0;101420;;;;
2022/05/19 01:11:01;;;;;;;0.3;0.3;;;;;;;21.1;100.0;101420;;;;
2022/05/19 01:12:00;;;;;;;0.3;0.3;;;;;;;21.1;100.0;101420;;;;
2022/05/19 01:13:00;;;;;;;0.3;0.3;;;;;;;21.2;100.0;101420;;;;
2022/05/19 01:14:00;;;;;;;0.3;0.3;;;;;;;21.2;100.0;101420;;;;
2022/05/19 01:15:01;;;;;;;0.3;0.3;;;;;;;21.2;100.0;101410;;;;
2022/05/19 01:16:00;;;;;;;0.3;0.3;;;;;;;21.2;100.0;101410;;;;
2022/05/19 01:17:00;;;;;;;0.3;0.3;;;;;;;21.2;100.0;101410;;;;
2022/05/19 01:18:01;;;;;;;0.3;0.3;;;;;;;21.2;100.0;101410;;;;
2022/05/19 01:19:03;;;;;;;0.3;0.3;;;;;;;21.1;100.0;101410;;;;
2022/05/19 01:20:04;;;;;;;0.3;0.3;;;;;;;21.1;100.0;101410;;;;
2022/05/19 01:21:00;;;;;;;0.3;0.3;;;;;;;20.9;100.0;101410;;;;
2022/05/19 01:22:04;;;;;;;0.8;0.8;;;;;;;20.9;100.0;101410;;;;
2022/05/19 01:23:10;;;;;;;0.8;0.8;;;;;;;21.1;100.0;101410;;;;
2022/05/19 01:24:11;;;;;;;0.8;0.8;;;;;;;21.1;100.0;101410;;;;
2022/05/19 01:25:06;;;;;;;0.8;0.8;;;;;;;21.1;100.0;101390;;;;
2022/05/19 01:26:00;;;;;;;0.8;0.8;;;;;;;21.1;100.0;101390;;;;
2022/05/19 01:27:02;;;;;;;0.8;0.8;;;;;;;21.0;100.0;101390;;;;
2022/05/19 01:28:00;;;;;;;0.8;0.8;;;;;;;21.0;100.0;101390;;;;
2022/05/19 01:29:00;;;;;;;0.8;0.8;;;;;;;21.1;100.0;101390;;;;
2022/05/19 01:30:00;;;;;;;0.8;0.8;;;;;;;21.1;100.0;101390;;;;
2022/05/19 01:31:00;;;;;;;0.8;0.8;;;;;;;21.0;100.0;101380;;;;
2022/05/19 01:32:01;;;;;;;0.8;0.8;;;;;;;21.0;100.0;101380;;;;
2022/05/19 01:33:00;;;;;;;0.8;0.8;;;;;;;20.9;100.0;101380;;;;
2022/05/19 01:34:02;;;;;;;0.8;0.8;;;;;;;20.9;100.0;101380;;;;
2022/05/19 01:35:00;;;;;;;0.8;0.8;;;;;;;20.8;100.0;101380;;;;
2022/05/19 01:36:00;;;;;;;0.8;0.8;;;;;;;20.8;100.0;101380;;;;
2022/05/19 01:37:00;;;;;;;0.8;0.8;;;;;;;20.9;100.0;101370;;;;
2022/05/19 01:38:01;;;;;;;0.8;0.8;;;;;;;20.9;100.0;101370;;;;
2022/05/19 01:39:04;;;;;;;0.8;0.8;;;;;;;20.9;100.0;101370;;;;
2022/05/19 01:40:04;;;;;;;0.8;0.8;;;;;;;20.9;100.0;101370;;;;
2022/05/19 01:41:10;;;;;;;0.8;0.8;;;;;;;20.9;100.0;101370;;;;
2022/05/19 01:42:07;;;;;;;0.4;0.4;;;;;;;20.9;100.0;101370;;;;
2022/05/19 01:43:07;;;;;;;0.4;0.4;;;;;;;20.8;100.0;101370;;;;
2022/05/19 01:44:10;;;;;;;0.4;0.4;;;;;;;20.8;100.0;101370;;;;
2022/05/19 01:45:01;;;;;;;0.4;0.4;;;;;;;20.6;100.0;101360;;;;
2022/05/19 01:46:10;;;;;;;0.4;0.4;;;;;;;20.6;100.0;101360;;;;
2022/05/19 01:47:05;;;;;;;0.4;0.4;;;;;;;20.7;100.0;101370;;;;
2022/05/19 01:48:04;;;;;;;0.4;0.4;;;;;;;20.7;100.0;101370;;;;
2022/05/19 01:49:05;;;;;;;0.4;0.4;;;;;;;20.8;100.0;101370;;;;
2022/05/19 01:50:00;;;;;;;0.4;0.4;;;;;;;20.8;100.0;101370;;;;
2022/05/19 01:51:00;;;;;;;0.4;0.4;;;;;;;20.6;100.0;101370;;;;
2022/05/19 01:52:10;;;;;;;0.4;0.4;;;;;;;20.6;100.0;101370;;;;
2022/05/19 01:53:10;;;;;;;0.4;0.4;;;;;;;20.6;100.0;101370;;;;
2022/05/19 01:54:06;;;;;;;0.4;0.4;;;;;;;20.6;100.0;101370;;;;
2022/05/19 01:55:10;;;;;;;0.4;0.4;;;;;;;20.5;100.0;101360;;;;
2022/05/19 01:56:10;;;;;;;0.4;0.4;;;;;;;20.5;100.0;101360;;;;
2022/05/19 01:57:04;;;;;;;0.4;0.4;;;;;;;20.4;100.0;101370;;;;
2022/05/19 01:58:08;;;;;;;0.4;0.4;;;;;;;20.4;100.0;101370;;;;
2022/05/19 01:59:10;;;;;;;0.4;0.4;;;;;;;20.4;100.0;101360;;;;
2022/05/19 02:00:06;;;;;;;0.4;0.4;;;;;;;20.4;100.0;101360;;;;
2022/05/19 02:01:03;;;;;;;0.4;0.4;;;;;;;20.5;100.0;101360;;;;
2022/05/19 02:02:05;;;;;;;1.1;1.1;;;;;;;20.5;100.0;101360;;;;
2022/05/19 02:03:03;;;;;;;1.1;1.1;;;;;;;20.5;100.0;101360;;;;
2022/05/19 02:04:06;;;;;;;1.1;1.1;;;;;;;20.5;100.0;101360;;;;
2022/05/19 02:05:06;;;;;;;1.1;1.1;;;;;;;20.4;100.0;101360;;;;
2022/05/19 02:06:05;;;;;;;1.1;1.1;;;;;;;20.4;100.0;101360;;;;
2022/05/19 02:07:02;;;;;;;1.1;1.1;;;;;;;20.4;100.0;101360;;;;
2022/05/19 02:08:01;;;;;;;1.1;1.1;;;;;;;20.4;100.0;101360;;;;
2022/05/19 02:09:02;;;;;;;1.1;1.1;;;;;;;20.5;100.0;101360;;;;
2022/05/19 02:10:02;;;;;;;1.1;1.1;;;;;;;20.5;100.0;101360;;;;
2022/05/19 02:11:02;;;;;;;1.1;1.1;;;;;;;20.3;100.0;101360;;;;
2022/05/19 02:12:01;;;;;;;1.1;1.1;;;;;;;20.3;100.0;101360;;;;
2022/05/19 02:13:01;;;;;;;1.1;1.1;;;;;;;20.2;100.0;101360;;;;
2022/05/19 02:14:03;;;;;;;1.1;1.1;;;;;;;20.2;100.0;101360;;;;
2022/05/19 02:15:03;;;;;;;1.1;1.1;;;;;;;20.2;100.0;101360;;;;
2022/05/19 02:16:03;;;;;;;1.1;1.1;;;;;;;20.2;100.0;101360;;;;
2022/05/19 02:17:01;;;;;;;1.1;1.1;;;;;;;20.2;100.0;101360;;;;
2022/05/19 02:18:00;;;;;;;1.1;1.1;;;;;;;20.2;100.0;101360;;;;
2022/05/19 02:19:00;;;;;;;1.1;1.1;;;;;;;20.3;100.0;101360;;;;
2022/05/19 02:20:04;;;;;;;1.1;1.1;;;;;;;20.3;100.0;101360;;;;
2022/05/19 02:21:02;;;;;;;1.1;1.1;;;;;;;20.3;100.0;101350;;;;
2022/05/19 02:22:01;;;;;;;2.0;0.7;;;;;;;20.3;100.0;101350;;;;
2022/05/19 02:23:00;;;;;;;2.0;0.7;;;;;;;20.4;100.0;101350;;;;
2022/05/19 02:24:01;;;;;;;2.0;0.7;;;;;;;20.4;100.0;101350;;;;
2022/05/19 02:25:04;;;;;;;2.0;0.7;;;;;;;20.4;100.0;101360;;;;
2022/05/19 02:26:00;;;;;;;2.0;0.7;;;;;;;20.4;100.0;101360;;;;
2022/05/19 02:27:10;;;;;;;2.0;0.7;;;;;;;20.5;100.0;101360;;;;
2022/05/19 02:28:06;;;;;;;2.0;0.7;;;;;;;20.5;100.0;101360;;;;
2022/05/19 02:29:05;;;;;;;2.0;0.7;;;;;;;20.5;100.0;101350;;;;
2022/05/19 02:30:01;;;;;;;2.0;0.7;;;;;;;20.5;100.0;101350;;;;
2022/05/19 02:31:00;;;;;;;2.0;0.7;;;;;;;20.4;100.0;101360;;;;
2022/05/19 02:32:00;;;;;;;2.0;0.7;;;;;;;20.4;100.0;101360;;;;
2022/05/19 02:33:00;;;;;;;2.0;0.7;;;;;;;20.4;100.0;101350;;;;
2022/05/19 02:34:00;;;;;;;2.0;0.7;;;;;;;20.4;100.0;101350;;;;
2022/05/19 02:35:00;;;;;;;2.0;0.7;;;;;;;20.5;100.0;101360;;;;
2022/05/19 02:36:00;;;;;;;2.0;0.7;;;;;;;20.5;100.0;101360;;;;
2022/05/19 02:37:00;;;;;;;2.0;0.7;;;;;;;20.5;100.0;101360;;;;
2022/05/19 02:38:00;;;;;;;2.0;0.7;;;;;;;20.5;100.0;101360;;;;
2022/05/19 02:39:00;;;;;;;2.0;0.7;;;;;;;20.5;100.0;101360;;;;
2022/05/19 02:40:00;;;;;;;2.0;0.7;;;;;;;20.5;100.0;101360;;;;
2022/05/19 02:41:00;;;;;;;2.0;0.7;;;;;;;20.5;100.0;101360;;;;
2022/05/19 02:42:00;;;;;;;2.0;1.5;;;;;;;20.5;100.0;101360;;;;
2022/05/19 02:43:01;;;;;;;2.0;1.5;;;;;;;20.5;100.0;101360;;;;
2022/05/19 02:44:00;;;;;;;2.0;1.5;;;;;;;20.5;100.0;101360;;;;
2022/05/19 02:45:00;;;;;;;2.0;1.5;;;;;;;20.5;100.0;101360;;;;
2022/05/19 02:46:00;;;;;;;2.0;1.5;;;;;;;20.5;100.0;101360;;;;
2022/05/19 02:47:00;;;;;;;2.0;1.5;;;;;;;20.6;100.0;101360;;;;
2022/05/19 02:48:00;;;;;;;2.0;1.5;;;;;;;20.6;100.0;101360;;;;
2022/05/19 02:49:00;;;;;;;2.0;1.5;;;;;;;20.5;100.0;101360;;;;
2022/05/19 02:50:00;;;;;;;2.0;1.5;;;;;;;20.5;100.0;101360;;;;
2022/05/19 02:51:00;;;;;;;2.0;1.5;;;;;;;20.5;100.0;101370;;;;
2022/05/19 02:52:00;;;;;;;2.0;1.5;;;;;;;20.5;100.0;101370;;;;
2022/05/19 02:53:00;;;;;;;2.0;1.5;;;;;;;20.5;100.0;101370;;;;
2022/05/19 02:54:00;;;;;;;2.0;1.5;;;;;;;20.5;100.0;101370;;;;
2022/05/19 02:55:00;;;;;;;2.0;1.5;;;;;;;20.5;100.0;101370;;;;
2022/05/19 02:56:00;;;;;;;2.0;1.5;;;;;;;20.5;100.0;101370;;;;
2022/05/19 02:57:00;;;;;;;2.0;1.5;;;;;;;20.5;100.0;101380;;;;
2022/05/19 02:58:00;;;;;;;2.0;1.5;;;;;;;20.5;100.0;101380;;;;
2022/05/19 02:59:00;;;;;;;2.0;1.5;;;;;;;20.5;100.0;101380;;;;
2022/05/19 03:00:00;;;;;;;2.0;1.5;;;;;;;20.5;100.0;101380;;;;
2022/05/19 03:01:00;;;;;;;2.0;1.5;;;;;;;20.5;100.0;101380;;;;
2022/05/19 03:02:00;;;;;;;0.6;0.6;;;;;;;20.5;100.0;101380;;;;
2022/05/19 03:03:00;;;;;;;0.6;0.6;;;;;;;20.6;100.0;101380;;;;
2022/05/19 03:04:00;;;;;;;0.6;0.6;;;;;;;20.6;100.0;101380;;;;
2022/05/19 03:05:00;;;;;;;0.6;0.6;;;;;;;20.5;100.0;101380;;;;
2022/05/19 03:06:00;;;;;;;0.6;0.6;;;;;;;20.5;100.0;101380;;;;
2022/05/19 03:07:00;;;;;;;0.6;0.6;;;;;;;20.5;100.0;101380;;;;
2022/05/19 03:08:00;;;;;;;0.6;0.6;;;;;;;20.5;100.0;101380;;;;
2022/05/19 03:09:00;;;;;;;0.6;0.6;;;;;;;20.6;100.0;101380;;;;
2022/05/19 03:10:00;;;;;;;0.6;0.6;;;;;;;20.6;100.0;101380;;;;
2022/05/19 03:11:00;;;;;;;0.6;0.6;;;;;;;20.6;100.0;101390;;;;
2022/05/19 03:12:00;;;;;;;0.6;0.6;;;;;;;20.6;100.0;101390;;;;
2022/05/19 03:13:00;;;;;;;0.6;0.6;;;;;;;20.7;100.0;101390;;;;
2022/05/19 03:14:00;;;;;;;0.6;0.6;;;;;;;20.7;100.0;101390;;;;
2022/05/19 03:15:00;;;;;;;0.6;0.6;;;;;;;20.6;100.0;101390;;;;
2022/05/19 03:16:00;;;;;;;0.6;0.6;;;;;;;20.6;100.0;101390;;;;
2022/05/19 03:17:00;;;;;;;0.6;0.6;;;;;;;20.7;100.0;101400;;;;
2022/05/19 03:18:00;;;;;;;0.6;0.6;;;;;;;20.7;100.0;101400;;;;
2022/05/19 03:19:00;;;;;;;0.6;0.6;;;;;;;20.5;100.0;101480;;;;
2022/05/19 03:20:00;;;;;;;0.6;0.6;;;;;;;20.5;100.0;101480;;;;
2022/05/19 03:21:00;;;;;;;0.6;0.6;;;;;;;20.4;100.0;101500;;;;
2022/05/19 03:22:00;;;;;;;0.9;0.7;;;;;;;20.4;100.0;101500;;;;
2022/05/19 03:23:00;;;;;;;0.9;0.7;;;;;;;20.4;100.0;101510;;;;
2022/05/19 03:24:00;;;;;;;0.9;0.7;;;;;;;20.4;100.0;101510;;;;
2022/05/19 03:25:00;;;;;;;0.9;0.7;;;;;;;20.4;100.0;101510;;;;
2022/05/19 03:26:00;;;;;;;0.9;0.7;;;;;;;20.4;100.0;101510;;;;
2022/05/19 03:27:00;;;;;;;0.9;0.7;;;;;;;20.5;100.0;101500;;;;
2022/05/19 03:28:00;;;;;;;0.9;0.7;;;;;;;20.5;100.0;101500;;;;
2022/05/19 03:29:00;;;;;;;0.9;0.7;;;;;;;20.6;100.0;101520;;;;
2022/05/19 03:30:00;;;;;;;0.9;0.7;;;;;;;20.6;100.0;101520;;;;
2022/05/19 03:31:00;;;;;;;0.9;0.7;;;;;;;20.6;100.0;101520;;;;
2022/05/19 03:32:00;;;;;;;0.9;0.7;;;;;;;20.6;100.0;101520;;;;
2022/05/19 03:33:00;;;;;;;0.9;0.7;;;;;;;20.7;100.0;101520;;;;
2022/05/19 03:34:00;;;;;;;0.9;0.7;;;;;;;20.7;100.0;101520;;;;
2022/05/19 03:35:00;;;;;;;0.9;0.7;;;;;;;20.7;100.0;101500;;;;
2022/05/19 03:36:02;;;;;;;0.9;0.7;;;;;;;20.7;100.0;101500;;;;
2022/05/19 03:37:02;;;;;;;0.9;0.7;;;;;;;20.8;100.0;101500;;;;
2022/05/19 03:38:00;;;;;;;0.9;0.7;;;;;;;20.8;100.0;101500;;;;
2022/05/19 03:39:00;;;;;;;0.9;0.7;;;;;;;20.8;100.0;101530;;;;
2022/05/19 03:40:00;;;;;;;0.9;0.7;;;;;;;20.8;100.0;101530;;;;
2022/05/19 03:41:00;;;;;;;0.9;0.7;;;;;;;20.8;100.0;101530;;;;
2022/05/19 03:42:00;;;;;;;0.6;0.6;;;;;;;20.8;100.0;101530;;;;
2022/05/19 03:43:00;;;;;;;0.6;0.6;;;;;;;20.9;100.0;101520;;;;
2022/05/19 03:44:00;;;;;;;0.6;0.6;;;;;;;20.9;100.0;101520;;;;
2022/05/19 03:45:00;;;;;;;0.6;0.6;;;;;;;21.0;100.0;101510;;;;
2022/05/19 03:46:01;;;;;;;0.6;0.6;;;;;;;21.0;100.0;101510;;;;
2022/05/19 03:47:00;;;;;;;0.6;0.6;;;;;;;21.0;100.0;101520;;;;
2022/05/19 03:48:00;;;;;;;0.6;0.6;;;;;;;21.0;100.0;101520;;;;
2022/05/19 03:49:00;;;;;;;0.6;0.6;;;;;;;21.1;100.0;101520;;;;
2022/05/19 03:50:00;;;;;;;0.6;0.6;;;;;;;21.1;100.0;101520;;;;
2022/05/19 03:51:01;;;;;;;0.6;0.6;;;;;;;21.1;100.0;101520;;;;
2022/05/19 03:52:00;;;;;;;0.6;0.6;;;;;;;21.1;100.0;101520;;;;
2022/05/19 03:53:00;;;;;;;0.6;0.6;;;;;;;21.2;100.0;101520;;;;
2022/05/19 03:54:00;;;;;;;0.6;0.6;;;;;;;21.2;100.0;101520;;;;
2022/05/19 03:55:00;;;;;;;0.6;0.6;;;;;;;21.2;100.0;101520;;;;
2022/05/19 03:56:00;;;;;;;0.6;0.6;;;;;;;21.2;100.0;101520;;;;
2022/05/19 03:57:00;;;;;;;0.6;0.6;;;;;;;21.2;100.0;101520;;;;
2022/05/19 03:58:00;;;;;;;0.6;0.6;;;;;;;21.2;100.0;101520;;;;
2022/05/19 03:59:00;;;;;;;0.6;0.6;;;;;;;21.2;100.0;101540;;;;
2022/05/19 04:00:00;;;;;;;0.6;0.6;;;;;;;21.2;100.0;101540;;;;
2022/05/19 04:01:00;;;;;;;0.6;0.6;;;;;;;21.2;100.0;101540;;;;
2022/05/19 04:02:01;;;;;;;0.4;0.4;;;;;;;21.2;100.0;101540;;;;
2022/05/19 04:03:00;;;;;;;0.4;0.4;;;;;;;21.3;100.0;101530;;;;
2022/05/19 04:04:00;;;;;;;0.4;0.4;;;;;;;21.3;100.0;101530;;;;
2022/05/19 04:05:00;;;;;;;0.4;0.4;;;;;;;21.4;100.0;101530;;;;
2022/05/19 04:06:00;;;;;;;0.4;0.4;;;;;;;21.4;100.0;101530;;;;
2022/05/19 04:07:00;;;;;;;0.4;0.4;;;;;;;21.3;100.0;101530;;;;
2022/05/19 04:08:00;;;;;;;0.4;0.4;;;;;;;21.3;100.0;101530;;;;
2022/05/19 04:09:00;;;;;;;0.4;0.4;;;;;;;21.3;100.0;101540;;;;
2022/05/19 04:10:00;;;;;;;0.4;0.4;;;;;;;21.3;100.0;101540;;;;
2022/05/19 04:11:00;;;;;;;0.4;0.4;;;;;;;21.3;100.0;101530;;;;
2022/05/19 04:12:00;;;;;;;0.4;0.4;;;;;;;21.3;100.0;101530;;;;
2022/05/19 04:13:00;;;;;;;0.4;0.4;;;;;;;21.4;100.0;101530;;;;
2022/05/19 04:14:00;;;;;;;0.4;0.4;;;;;;;21.4;100.0;101530;;;;
2022/05/19 04:15:00;;;;;;;0.4;0.4;;;;;;;21.4;100.0;101540;;;;
2022/05/19 04:16:04;;;;;;;0.4;0.4;;;;;;;21.4;100.0;101540;;;;
2022/05/19 04:17:00;;;;;;;0.4;0.4;;;;;;;21.3;100.0;101530;;;;
2022/05/19 04:18:00;;;;;;;0.4;0.4;;;;;;;21.3;100.0;101530;;;;
2022/05/19 04:19:00;;;;;;;0.4;0.4;;;;;;;21.3;100.0;101530;;;;
2022/05/19 04:20:01;;;;;;;0.4;0.4;;;;;;;21.3;100.0;101530;;;;
2022/05/19 04:21:00;;;;;;;0.4;0.4;;;;;;;21.4;100.0;101540;;;;
2022/05/19 04:22:01;;;;;;;1.8;1.4;;;;;;;21.4;100.0;101540;;;;
2022/05/19 04:23:00;;;;;;;1.8;1.4;;;;;;;21.4;100.0;101540;;;;
2022/05/19 04:24:00;;;;;;;1.8;1.4;;;;;;;21.4;100.0;101540;;;;
2022/05/19 04:25:00;;;;;;;1.8;1.4;;;;;;;21.4;100.0;101530;;;;
2022/05/19 04:26:00;;;;;;;1.8;1.4;;;;;;;21.4;100.0;101530;;;;
2022/05/19 04:27:02;;;;;;;1.8;1.4;;;;;;;21.3;100.0;101540;;;;
2022/05/19 04:28:00;;;;;;;1.8;1.4;;;;;;;21.3;100.0;101540;;;;
2022/05/19 04:29:00;;;;;;;1.8;1.4;;;;;;;21.4;100.0;101540;;;;
2022/05/19 04:30:07;;;;;;;1.8;1.4;;;;;;;21.4;100.0;101540;;;;
2022/05/19 04:31:00;;;;;;;1.8;1.4;;;;;;;21.4;100.0;101540;;;;
2022/05/19 04:32:00;;;;;;;1.8;1.4;;;;;;;21.4;100.0;101540;;;;
2022/05/19 04:33:00;;;;;;;1.8;1.4;;;;;;;21.3;100.0;101540;;;;
2022/05/19 04:34:00;;;;;;;1.8;1.4;;;;;;;21.3;100.0;101540;;;;
2022/05/19 04:35:00;;;;;;;1.8;1.4;;;;;;;21.4;100.0;101540;;;;
2022/05/19 04:36:01;;;;;;;1.8;1.4;;;;;;;21.4;100.0;101540;;;;
2022/05/19 04:37:00;;;;;;;1.8;1.4;;;;;;;21.4;100.0;101540;;;;
2022/05/19 04:38:04;;;;;;;1.8;1.4;;;;;;;21.4;100.0;101540;;;;
2022/05/19 04:39:00;;;;;;;1.8;1.4;;;;;;;21.4;100.0;101530;;;;
2022/05/19 04:40:01;;;;;;;1.8;1.4;;;;;;;21.4;100.0;101530;;;;
2022/05/19 04:41:01;;;;;;;0.8;0.4;;;;;;;21.5;100.0;101530;;;;
2022/05/19 04:42:04;;;;;;;0.8;0.4;;;;;;;21.5;100.0;101530;;;;
2022/05/19 04:43:00;;;;;;;0.8;0.4;;;;;;;21.5;100.0;101530;;;;
2022/05/19 04:44:00;;;;;;;0.8;0.4;;;;;;;21.5;100.0;101530;;;;
2022/05/19 04:45:00;;;;;;;0.8;0.4;;;;;;;21.5;100.0;101530;;;;
2022/05/19 04:46:00;;;;;;;0.8;0.4;;;;;;;21.5;100.0;101530;;;;
2022/05/19 04:47:00;;;;;;;0.8;0.4;;;;;;;21.5;100.0;101530;;;;
2022/05/19 04:48:00;;;;;;;0.8;0.4;;;;;;;21.5;100.0;101530;;;;
2022/05/19 04:49:00;;;;;;;0.8;0.4;;;;;;;21.5;100.0;101530;;;;
2022/05/19 04:50:00;;;;;;;0.8;0.4;;;;;;;21.5;100.0;101530;;;;
2022/05/19 04:51:00;;;;;;;0.8;0.4;;;;;;;21.5;100.0;101530;;;;
2022/05/19 04:52:00;;;;;;;0.8;0.4;;;;;;;21.5;100.0;101530;;;;
2022/05/19 04:53:00;;;;;;;0.8;0.4;;;;;;;21.5;100.0;101530;;;;
2022/05/19 04:54:00;;;;;;;0.8;0.4;;;;;;;21.5;100.0;101530;;;;
2022/05/19 04:55:03;;;;;;;0.8;0.4;;;;;;;21.5;100.0;101510;;;;
2022/05/19 04:56:00;;;;;;;0.8;0.4;;;;;;;21.5;100.0;101510;;;;
2022/05/19 04:57:00;;;;;;;0.8;0.4;;;;;;;21.5;100.0;101510;;;;
2022/05/19 04:58:00;;;;;;;0.8;0.4;;;;;;;21.5;100.0;101510;;;;
2022/05/19 04:59:00;;;;;;;0.8;0.4;;;;;;;21.5;100.0;101520;;;;
2022/05/19 05:00:00;;;;;;;0.8;0.4;;;;;;;21.5;100.0;101520;;;;
2022/05/19 05:01:00;;;;;;;0.2;0.2;;;;;;;21.6;100.0;101520;;;;
2022/05/19 05:02:00;;;;;;;0.2;0.2;;;;;;;21.6;100.0;101520;;;;
2022/05/19 05:03:00;;;;;;;0.2;0.2;;;;;;;21.6;100.0;101520;;;;
2022/05/19 05:04:00;;;;;;;0.2;0.2;;;;;;;21.6;100.0;101520;;;;
2022/05/19 05:05:00;;;;;;;0.2;0.2;;;;;;;21.6;100.0;101530;;;;
2022/05/19 05:06:00;;;;;;;0.2;0.2;;;;;;;21.6;100.0;101530;;;;
2022/05/19 05:07:00;;;;;;;0.2;0.2;;;;;;;21.7;100.0;101530;;;;
2022/05/19 05:08:00;;;;;;;0.2;0.2;;;;;;;21.7;100.0;101530;;;;
2022/05/19 05:09:00;;;;;;;0.2;0.2;;;;;;;21.7;100.0;101530;;;;
2022/05/19 05:10:00;;;;;;;0.2;0.2;;;;;;;21.7;100.0;101530;;;;
2022/05/19 05:11:00;;;;;;;0.2;0.2;;;;;;;21.7;100.0;101520;;;;
2022/05/19 05:12:00;;;;;;;0.2;0.2;;;;;;;21.7;100.0;101520;;;;
2022/05/19 05:13:03;;;;;;;0.2;0.2;;;;;;;21.7;100.0;101520;;;;
2022/05/19 05:14:00;;;;;;;0.2;0.2;;;;;;;21.7;100.0;101520;;;;
2022/05/19 05:15:00;;;;;;;0.2;0.2;;;;;;;21.7;100.0;101510;;;;
2022/05/19 05:16:00;;;;;;;0.2;0.2;;;;;;;21.7;100.0;101510;;;;
2022/05/19 05:17:00;;;;;;;0.2;0.2;;;;;;;21.6;100.0;101520;;;;
2022/05/19 05:18:00;;;;;;;0.2;0.2;;;;;;;21.6;100.0;101520;;;;
2022/05/19 05:19:00;;;;;;;0.2;0.2;;;;;;;21.7;100.0;101520;;;;
2022/05/19 05:20:00;;;;;;;0.2;0.2;;;;;;;21.7;100.0;101520;;;;
2022/05/19 05:21:03;;;;;;;0.5;0.5;;;;;;;21.6;100.0;101520;;;;
2022/05/19 05:22:00;;;;;;;0.5;0.5;;;;;;;21.6;100.0;101520;;;;
2022/05/19 05:23:00;;;;;;;0.5;0.5;;;;;;;21.7;100.0;101520;;;;
2022/05/19 05:24:00;;;;;;;0.5;0.5;;;;;;;21.7;100.0;101520;;;;
2022/05/19 05:25:01;;;;;;;0.5;0.5;;;;;;;21.8;100.0;101520;;;;
2022/05/19 05:26:01;;;;;;;0.5;0.5;;;;;;;21.8;100.0;101520;;;;
2022/05/19 05:27:00;;;;;;;0.5;0.5;;;;;;;21.8;100.0;101510;;;;
2022/05/19 05:28:00;;;;;;;0.5;0.5;;;;;;;21.8;100.0;101510;;;;
2022/05/19 05:29:00;;;;;;;0.5;0.5;;;;;;;21.7;100.0;101520;;;;
2022/05/19 05:30:00;;;;;;;0.5;0.5;;;;;;;21.7;100.0;101520;;;;
2022/05/19 05:31:00;;;;;;;0.5;0.5;;;;;;;21.8;100.0;101520;;;;
2022/05/19 05:32:00;;;;;;;0.5;0.5;;;;;;;21.8;100.0;101520;;;;
2022/05/19 05:33:04;;;;;;;0.5;0.5;;;;;;;21.8;100.0;101520;;;;
2022/05/19 05:34:00;;;;;;;0.5;0.5;;;;;;;21.8;100.0;101520;;;;
2022/05/19 05:35:00;;;;;;;0.5;0.5;;;;;;;21.8;100.0;101510;;;;
2022/05/19 05:36:00;;;;;;;0.5;0.5;;;;;;;21.8;100.0;101510;;;;
2022/05/19 05:37:00;;;;;;;0.5;0.5;;;;;;;21.9;100.0;101500;;;;
2022/05/19 05:38:00;;;;;;;0.5;0.5;;;;;;;21.9;100.0;101500;;;;
2022/05/19 05:39:00;;;;;;;0.5;0.5;;;;;;;21.8;100.0;101510;;;;
2022/05/19 05:40:01;;;;;;;0.5;0.5;;;;;;;21.8;100.0;101510;;;;
2022/05/19 05:41:02;;;;;;;1.2;1.2;;;;;;;21.9;100.0;101500;;;;
2022/05/19 05:42:00;;;;;;;1.2;1.2;;;;;;;21.9;100.0;101500;;;;
2022/05/19 05:43:04;;;;;;;1.2;1.2;;;;;;;21.8;100.0;101480;;;;
2022/05/19 05:44:00;;;;;;;1.2;1.2;;;;;;;21.8;100.0;101480;;;;
2022/05/19 05:45:00;;;;;;;1.2;1.2;;;;;;;21.8;100.0;101480;;;;
2022/05/19 05:46:05;;;;;;;1.2;1.2;;;;;;;21.8;100.0;101480;;;;
2022/05/19 05:47:00;;;;;;;1.2;1.2;;;;;;;21.7;100.0;101460;;;;
2022/05/19 05:48:00;;;;;;;1.2;1.2;;;;;;;21.7;100.0;101460;;;;
2022/05/19 05:49:00;;;;;;;1.2;1.2;;;;;;;21.8;100.0;101470;;;;
2022/05/19 05:50:00;;;;;;;1.2;1.2;;;;;;;21.8;100.0;101470;;;;
2022/05/19 05:51:00;;;;;;;1.2;1.2;;;;;;;21.8;100.0;101470;;;;
2022/05/19 05:52:00;;;;;;;1.2;1.2;;;;;;;21.8;100.0;101470;;;;
2022/05/19 05:53:00;;;;;;;1.2;1.2;;;;;;;21.8;100.0;101460;;;;
2022/05/19 05:54:00;;;;;;;1.2;1.2;;;;;;;21.8;100.0;101460;;;;
2022/05/19 05:55:00;;;;;;;1.2;1.2;;;;;;;21.7;100.0;101450;;;;
2022/05/19 05:56:00;;;;;;;1.2;1.2;;;;;;;21.7;100.0;101450;;;;
2022/05/19 05:57:00;;;;;;;1.2;1.2;;;;;;;21.6;100.0;101440;;;;
2022/05/19 05:58:03;;;;;;;1.2;1.2;;;;;;;21.6;100.0;101440;;;;
2022/05/19 05:59:00;;;;;;;1.2;1.2;;;;;;;21.5;100.0;101430;;;;
2022/05/19 06:00:01;;;;;;;1.2;1.2;;;;;;;21.5;100.0;101430;;;;
2022/05/19 06:01:03;;;;;;;0.3;0.3;;;;;;;21.4;100.0;101430;;;;
2022/05/19 06:02:00;;;;;;;0.3;0.3;;;;;;;21.4;100.0;101430;;;;
2022/05/19 06:03:00;;;;;;;0.3;0.3;;;;;;;21.4;100.0;101420;;;;
2022/05/19 06:04:01;;;;;;;0.3;0.3;;;;;;;21.4;100.0;101420;;;;
2022/05/19 06:05:00;;;;;;;0.3;0.3;;;;;;;21.5;100.0;101440;;;;
2022/05/19 06:06:01;;;;;;;0.3;0.3;;;;;;;21.5;100.0;101440;;;;
2022/05/19 06:07:00;;;;;;;0.3;0.3;;;;;;;21.4;100.0;101430;;;;
2022/05/19 06:08:00;;;;;;;0.3;0.3;;;;;;;21.4;100.0;101430;;;;
2022/05/19 06:09:03;;;;;;;0.3;0.3;;;;;;;21.3;100.0;101420;;;;
2022/05/19 06:10:00;;;;;;;0.3;0.3;;;;;;;21.3;100.0;101420;;;;
2022/05/19 06:11:00;;;;;;;0.3;0.3;;;;;;;21.2;100.0;101420;;;;
2022/05/19 06:12:00;;;;;;;0.3;0.3;;;;;;;21.2;100.0;101420;;;;
2022/05/19 06:13:00;;;;;;;0.3;0.3;;;;;;;21.1;100.0;101440;;;;
2022/05/19 06:14:00;;;;;;;0.3;0.3;;;;;;;21.1;100.0;101440;;;;
2022/05/19 06:15:00;;;;;;;0.3;0.3;;;;;;;21.2;100.0;101440;;;;
2022/05/19 06:16:00;;;;;;;0.3;0.3;;;;;;;21.2;100.0;101440;;;;
2022/05/19 06:17:00;;;;;;;0.3;0.3;;;;;;;21.2;100.0;101430;;;;
2022/05/19 06:18:00;;;;;;;0.3;0.3;;;;;;;21.2;100.0;101430;;;;
2022/05/19 06:19:00;;;;;;;0.3;0.3;;;;;;;21.2;100.0;101410;;;;
2022/05/19 06:20:00;;;;;;;0.3;0.3;;;;;;;21.2;100.0;101410;;;;
2022/05/19 06:21:00;;;;;;;0.3;0.3;;;;;;;21.1;100.0;101400;;;;
2022/05/19 06:22:00;;;;;;;0.3;0.3;;;;;;;21.1;100.0;101400;;;;
2022/05/19 06:23:00;;;;;;;0.3;0.3;;;;;;;20.9;100.0;101390;;;;